createdAt,value
2018-02-21T03:50:43.146Z,82.40
2018-02-21T03:53:13.638Z,81.70
2018-02-21T04:01:20.174Z,81.90
2018-02-21T04:03:50.704Z,81.30
2018-02-21T04:06:19.865Z,81.30
2018-02-21T04:08:50.081Z,81.20
2018-02-21T04:11:20.733Z,79.60
2018-02-21T04:13:51.582Z,81.50
2018-02-21T05:02:02.607Z,80.00
2018-02-21T05:04:33.761Z,79.40
2018-02-21T05:07:06.333Z,80.10
2018-02-21T05:09:36.202Z,78.90
2018-02-21T05:15:04.489Z,79.30
2018-02-21T05:17:40.068Z,78.70
2018-02-21T05:20:09.433Z,78.70
2018-02-21T05:22:38.570Z,79.00
2018-02-21T05:27:42.177Z,77.80
2018-02-21T05:35:57.465Z,78.60
2018-02-21T05:41:05.328Z,78.40
2018-02-21T05:43:34.689Z,78.60
2018-02-21T05:46:04.042Z,79.10
2018-02-21T05:48:33.391Z,79.60
2018-02-21T05:51:02.738Z,80.70
2018-02-21T05:53:31.387Z,81.40
2018-02-21T05:56:00.497Z,80.70
2018-02-21T05:58:29.782Z,80.40
2018-02-21T06:00:59.139Z,80.50
2018-02-21T06:03:28.510Z,80.80
2018-02-21T06:05:57.851Z,81.20
2018-02-21T06:08:28.550Z,80.90
2018-02-21T06:13:43.969Z,80.20
2018-02-21T06:16:13.726Z,79.90
2018-02-21T06:18:42.782Z,79.90
2018-02-21T06:21:12.434Z,79.90
2018-02-21T06:23:41.512Z,79.90
2018-02-21T06:26:10.850Z,79.80
2018-02-21T06:28:54.287Z,78.90
2018-02-21T06:31:24.240Z,79.00
2018-02-21T06:33:56.139Z,77.90
2018-02-21T06:36:25.457Z,77.90
2018-02-21T06:41:48.344Z,78.30
2018-02-21T06:44:17.610Z,77.50
2018-02-21T06:46:47.019Z,77.70
2018-02-21T06:49:16.372Z,77.60
2018-02-21T06:51:45.723Z,77.50
2018-02-21T06:54:15.060Z,77.30
2018-02-21T06:56:44.416Z,76.80
2018-02-21T06:59:13.822Z,76.30
2018-02-21T07:01:43.397Z,77.00
2018-02-21T07:04:13.210Z,77.00
2018-02-21T07:06:45.864Z,76.70
2018-02-21T07:09:15.167Z,75.80
2018-02-21T07:11:44.532Z,76.00
2018-02-21T07:14:13.878Z,81.90
2018-02-21T07:16:43.211Z,82.50
2018-02-21T07:19:12.902Z,76.60
2018-02-21T07:21:42.043Z,76.60
2018-02-21T07:24:12.284Z,74.70
2018-02-21T07:26:41.630Z,74.70
2018-02-21T07:29:10.984Z,73.70
2018-02-21T07:31:40.340Z,74.60
2018-02-21T07:34:09.690Z,73.80
2018-02-21T07:36:39.026Z,74.40
2018-02-21T07:39:08.386Z,75.10
2018-02-21T07:41:38.040Z,74.20
2018-02-21T07:44:07.301Z,74.20
2018-02-21T07:46:37.440Z,74.00
2018-02-21T07:49:07.111Z,74.70
2018-02-21T07:51:36.547Z,74.30
2018-02-21T07:54:05.877Z,73.60
2018-02-21T07:56:35.244Z,73.50
2018-02-21T07:59:04.570Z,74.00
2018-02-21T08:01:33.947Z,73.80
2018-02-21T08:04:03.063Z,74.00
2018-02-21T08:06:32.632Z,74.10
2018-02-21T08:09:01.967Z,74.10
2018-02-21T08:11:31.246Z,73.90
2018-02-21T08:14:00.572Z,73.40
2018-02-21T08:16:30.022Z,74.00
2018-02-21T08:18:59.332Z,74.30
2018-02-21T08:21:29.408Z,72.80
2018-02-21T08:23:59.503Z,73.00
2018-02-21T08:26:29.136Z,73.00
2018-02-21T08:28:58.368Z,71.80
2018-02-21T08:31:27.716Z,71.60
2018-02-21T08:33:57.343Z,72.40
2018-02-21T08:36:26.419Z,72.40
2018-02-21T08:38:55.808Z,71.50
2018-02-21T08:41:25.111Z,72.10
2018-02-21T08:43:54.518Z,70.90
2018-02-21T08:46:24.223Z,70.90
2018-02-21T08:48:53.249Z,70.90
2018-02-21T08:51:22.519Z,71.40
2018-02-21T08:53:51.125Z,71.00
2018-02-21T08:56:20.203Z,70.00
2018-02-21T08:58:49.860Z,68.00
2018-02-21T09:01:19.020Z,67.90
2018-02-21T09:03:49.241Z,68.00
2018-02-21T09:06:18.910Z,66.60
2018-02-21T09:08:47.990Z,66.50
2018-02-21T09:11:17.290Z,67.20
2018-02-21T09:13:46.646Z,66.40
2018-02-21T09:16:16.269Z,64.60
2018-02-21T09:18:46.368Z,64.60
2018-02-21T09:21:15.711Z,64.60
2018-02-21T09:23:45.079Z,66.00
2018-02-21T09:26:14.433Z,65.10
2018-02-21T09:28:43.774Z,62.80
2018-02-21T09:31:13.146Z,61.90
2018-02-21T09:33:42.494Z,61.40
2018-02-21T09:36:12.201Z,60.60
2018-02-21T09:38:41.313Z,60.60
2018-02-21T09:41:11.552Z,56.50
2018-02-21T09:43:40.948Z,56.50
2018-02-21T09:46:10.582Z,55.60
2018-02-21T09:48:39.607Z,55.50
2018-02-21T09:51:08.966Z,55.50
2018-02-21T09:53:38.314Z,56.70
2018-02-21T09:56:07.666Z,58.00
2018-02-21T09:58:37.006Z,58.20
2018-02-21T10:01:06.369Z,59.40
2018-02-21T10:03:35.704Z,59.10
2018-02-21T10:06:05.042Z,58.10
2018-02-21T10:08:34.686Z,60.50
2018-02-21T10:11:04.489Z,60.30
2018-02-21T10:13:33.388Z,60.30
2018-02-21T10:16:02.586Z,60.00
2018-02-21T10:18:31.806Z,60.20
2018-02-21T10:21:01.133Z,62.30
2018-02-21T10:23:30.492Z,62.60
2018-02-21T10:25:59.831Z,60.50
2018-02-21T10:28:29.192Z,61.00
2018-02-21T10:30:58.801Z,61.40
2018-02-21T10:33:28.471Z,61.40
2018-02-21T10:35:57.507Z,59.80
2018-02-21T10:38:27.584Z,60.20
2018-02-21T10:40:56.902Z,60.30
2018-02-21T10:43:26.254Z,59.20
2018-02-21T10:45:55.606Z,58.80
2018-02-21T10:48:24.958Z,60.80
2018-02-21T10:50:54.390Z,60.50
2018-02-21T10:53:23.645Z,59.60
2018-02-21T10:55:53.036Z,59.00
2018-02-21T10:58:23.294Z,58.40
2018-02-21T11:00:57.932Z,58.40
2018-02-21T11:03:27.103Z,58.10
2018-02-21T11:05:57.212Z,57.30
2018-02-21T11:08:26.111Z,55.90
2018-02-21T11:10:55.169Z,54.70
2018-02-21T11:13:24.503Z,53.70
2018-02-21T11:18:54.535Z,52.20
2018-02-21T11:21:25.070Z,54.70
2018-02-21T11:23:54.513Z,55.70
2018-02-21T11:26:23.701Z,53.00
2018-02-21T11:29:01.298Z,52.80
2018-02-21T11:31:30.459Z,53.80
2018-02-21T11:34:00.067Z,50.40
2018-02-21T11:36:29.253Z,50.40
2018-02-21T11:39:06.506Z,49.90
2018-02-21T11:41:36.080Z,49.80
2018-02-21T11:44:05.762Z,50.80
2018-02-21T11:46:34.944Z,48.50
2018-02-21T11:49:03.903Z,48.70
2018-02-21T11:51:35.170Z,47.70
2018-02-21T11:54:04.775Z,48.20
2018-02-21T11:56:34.670Z,47.40
2018-02-21T11:59:03.498Z,41.50
2018-02-21T12:01:33.498Z,38.90
2018-02-21T12:04:02.129Z,38.90
2018-02-21T12:06:31.174Z,37.40
2018-02-21T12:08:59.817Z,37.10
2018-02-21T12:11:29.734Z,37.70
2018-02-21T12:13:59.194Z,40.50
2018-02-21T12:16:28.518Z,40.70
2018-02-21T12:18:57.871Z,42.50
2018-02-21T12:21:26.487Z,44.80
2018-02-21T12:23:55.562Z,46.20
2018-02-21T12:26:24.858Z,47.70
2018-02-21T12:28:54.428Z,46.10
2018-02-21T12:31:22.843Z,46.10
2018-02-21T12:33:52.039Z,46.80
2018-02-21T12:39:04.673Z,49.10
2018-02-21T12:41:39.168Z,54.60
2018-02-21T12:44:09.057Z,51.60
2018-02-21T12:46:42.219Z,55.50
2018-02-21T12:49:13.492Z,51.50
2018-02-21T12:51:44.553Z,52.80
2018-02-21T12:54:16.199Z,50.80
2018-02-21T12:56:46.547Z,49.10
2018-02-21T12:59:18.351Z,54.90
2018-02-21T13:01:50.130Z,51.70
2018-02-21T13:10:05.391Z,52.80
2018-02-21T13:12:45.119Z,56.50
2018-02-21T13:17:50.906Z,60.00
2018-02-21T13:20:30.391Z,61.80
2018-02-21T13:22:59.657Z,62.00
2018-02-21T13:25:29.960Z,63.60
2018-02-21T13:33:17.859Z,69.80
2018-02-21T13:35:48.958Z,72.20
2018-02-21T13:41:02.044Z,76.40
2018-02-21T13:43:31.692Z,77.50
2018-02-21T13:48:41.025Z,76.70
2018-02-21T13:51:10.482Z,77.80
2018-02-21T13:53:49.924Z,78.50
2018-02-21T13:56:21.480Z,79.20
2018-02-21T13:58:51.224Z,79.10
2018-02-21T14:01:20.881Z,79.30
2018-02-21T14:03:50.622Z,79.50
2018-02-21T14:06:20.571Z,79.80
2018-02-21T14:08:50.004Z,80.20
2018-02-21T14:11:19.750Z,81.10
2018-02-21T14:13:49.656Z,81.10
2018-02-21T14:16:20.062Z,81.00
2018-02-21T14:18:49.660Z,81.60
2018-02-21T15:34:21.963Z,85.60
2018-02-21T15:36:52.305Z,85.70
2018-02-21T15:39:24.860Z,85.70
2018-02-21T15:41:55.018Z,86.80
2018-02-21T15:44:24.402Z,86.70
2018-02-21T15:46:53.788Z,86.40
2018-02-21T15:49:23.039Z,87.20
2018-02-21T15:51:52.379Z,87.70
2018-02-21T15:54:21.714Z,88.10
2018-02-21T15:56:51.061Z,88.00
2018-02-21T15:59:20.406Z,88.70
2018-02-21T16:01:50.034Z,88.50
2018-02-21T16:04:19.096Z,88.50
2018-02-21T16:06:48.821Z,89.20
2018-02-21T16:09:17.938Z,90.10
2018-02-21T16:11:47.138Z,90.00
2018-02-21T16:14:17.437Z,90.90
2018-02-21T16:16:47.070Z,91.20
2018-02-21T16:19:16.141Z,91.10
2018-02-21T16:21:45.455Z,90.80
2018-02-21T16:24:14.838Z,91.20
2018-02-21T16:26:44.109Z,91.20
2018-02-21T16:29:14.245Z,91.10
2018-02-21T16:31:43.113Z,91.10
2018-02-21T16:34:21.193Z,91.00
2018-02-21T16:36:50.526Z,90.90
2018-02-21T16:39:19.230Z,91.00
2018-02-21T16:41:47.944Z,91.10
2018-02-21T16:44:17.602Z,91.60
2018-02-21T16:46:46.870Z,91.60
2018-02-21T16:49:16.226Z,91.80
2018-02-21T16:51:44.966Z,92.00
2018-02-21T16:54:19.201Z,91.90
2018-02-21T16:56:48.249Z,92.00
2018-02-21T16:59:17.574Z,92.10
2018-02-21T17:01:47.183Z,92.10
2018-02-21T17:04:17.249Z,92.20
2018-02-21T17:06:46.596Z,92.10
2018-02-21T17:09:16.214Z,92.60
2018-02-21T17:11:46.282Z,92.50
2018-02-21T17:14:15.612Z,92.50
2018-02-21T17:16:44.996Z,92.50
2018-02-21T17:19:14.331Z,92.50
2018-02-21T17:21:43.939Z,92.50
2018-02-21T17:24:14.004Z,92.40
2018-02-21T17:26:43.364Z,92.40
2018-02-21T17:29:13.009Z,92.80
2018-02-21T17:31:41.726Z,92.80
2018-02-21T17:34:10.661Z,92.80
2018-02-21T17:36:39.717Z,92.70
2018-02-21T17:39:10.093Z,92.80
2018-02-21T17:41:40.437Z,92.70
2018-02-21T17:44:09.767Z,92.50
2018-02-21T17:46:39.133Z,92.50
2018-02-21T17:49:08.464Z,92.70
2018-02-21T17:51:38.132Z,92.60
2018-02-21T17:54:07.314Z,92.70
2018-02-21T17:56:37.501Z,92.30
2018-02-21T17:59:06.842Z,92.40
2018-02-21T18:01:36.192Z,92.70
2018-02-21T18:04:07.725Z,92.90
2018-02-21T18:06:37.879Z,92.90
2018-02-21T18:09:07.222Z,92.90
2018-02-21T18:11:36.558Z,92.60
2018-02-21T18:14:06.216Z,92.90
2018-02-21T18:16:36.261Z,93.40
2018-02-21T18:19:15.631Z,93.20
2018-02-21T18:22:03.364Z,93.00
2018-02-21T18:24:33.541Z,93.10
2018-02-21T18:27:03.157Z,93.20
2018-02-21T18:29:32.606Z,93.10
2018-02-21T18:32:01.809Z,93.10
2018-02-21T18:34:32.916Z,93.30
